sensor_id;sensor_type;location;lat;lon;timestamp;temperature;humidity
64869;DHT22;51349;52.424;10.840;2024-03-02T00:04:52;7.20;99.90
64869;DHT22;51349;52.424;10.840;2024-03-02T00:09:54;7.10;99.90
64869;DHT22;51349;52.424;10.840;2024-03-02T00:14:55;7.10;99.90
64869;DHT22;51349;52.424;10.840;2024-03-02T00:19:55;7.00;99.90
64869;DHT22;51349;52.424;10.840;2024-03-02T00:24:56;6.90;99.90
64869;DHT22;51349;52.424;10.840;2024-03-02T00:29:57;6.70;99.90
64869;DHT22;51349;52.424;10.840;2024-03-02T00:34:57;6.60;99.90
64869;DHT22;51349;52.424;10.840;2024-03-02T00:39:58;6.50;99.90
64869;DHT22;51349;52.424;10.840;2024-03-02T00:44:59;6.30;99.90
64869;DHT22;51349;52.424;10.840;2024-03-02T00:49:59;6.30;99.90
64869;DHT22;51349;52.424;10.840;2024-03-02T00:55:00;6.30;99.90
64869;DHT22;51349;52.424;10.840;2024-03-02T01:00:01;6.30;99.90
64869;DHT22;51349;52.424;10.840;2024-03-02T01:05:01;6.30;99.90
64869;DHT22;51349;52.424;10.840;2024-03-02T01:10:02;6.20;99.90
64869;DHT22;51349;52.424;10.840;2024-03-02T01:15:04;6.20;99.90
64869;DHT22;51349;52.424;10.840;2024-03-02T01:20:08;6.00;99.90
64869;DHT22;51349;52.424;10.840;2024-03-02T01:25:10;6.00;99.90
64869;DHT22;51349;52.424;10.840;2024-03-02T01:30:10;6.00;99.90
64869;DHT22;51349;52.424;10.840;2024-03-02T01:35:11;5.90;99.90
64869;DHT22;51349;52.424;10.840;2024-03-02T01:40:12;5.90;99.90
64869;DHT22;51349;52.424;10.840;2024-03-02T01:45:13;5.90;99.90
64869;DHT22;51349;52.424;10.840;2024-03-02T01:50:14;5.80;99.90
64869;DHT22;51349;52.424;10.840;2024-03-02T01:55:15;5.80;99.90
64869;DHT22;51349;52.424;10.840;2024-03-02T02:00:16;5.80;99.90
64869;DHT22;51349;52.424;10.840;2024-03-02T02:05:17;5.80;99.90
64869;DHT22;51349;52.424;10.840;2024-03-02T02:10:18;5.80;99.90
64869;DHT22;51349;52.424;10.840;2024-03-02T02:15:25;5.90;99.90
64869;DHT22;51349;52.424;10.840;2024-03-02T02:20:26;5.90;99.90
64869;DHT22;51349;52.424;10.840;2024-03-02T02:25:28;6.00;99.90
64869;DHT22;51349;52.424;10.840;2024-03-02T02:30:30;6.00;99.90
64869;DHT22;51349;52.424;10.840;2024-03-02T02:35:31;6.00;99.90
64869;DHT22;51349;52.424;10.840;2024-03-02T02:40:32;6.00;99.90
64869;DHT22;51349;52.424;10.840;2024-03-02T02:45:33;6.00;99.90
64869;DHT22;51349;52.424;10.840;2024-03-02T02:50:34;5.90;99.90
64869;DHT22;51349;52.424;10.840;2024-03-02T02:55:34;5.90;99.90
64869;DHT22;51349;52.424;10.840;2024-03-02T03:00:35;5.90;99.90
64869;DHT22;51349;52.424;10.840;2024-03-02T03:05:36;5.90;99.90
64869;DHT22;51349;52.424;10.840;2024-03-02T03:10:37;5.90;99.90
64869;DHT22;51349;52.424;10.840;2024-03-02T03:15:38;5.80;99.90
64869;DHT22;51349;52.424;10.840;2024-03-02T03:20:38;5.80;99.90
64869;DHT22;51349;52.424;10.840;2024-03-02T03:25:39;5.80;99.90
64869;DHT22;51349;52.424;10.840;2024-03-02T03:30:39;5.80;99.90
64869;DHT22;51349;52.424;10.840;2024-03-02T03:35:40;5.80;99.90
64869;DHT22;51349;52.424;10.840;2024-03-02T03:40:41;5.80;99.90
64869;DHT22;51349;52.424;10.840;2024-03-02T03:45:42;5.80;99.90
64869;DHT22;51349;52.424;10.840;2024-03-02T03:50:42;5.80;99.90
64869;DHT22;51349;52.424;10.840;2024-03-02T03:55:43;5.80;99.90
64869;DHT22;51349;52.424;10.840;2024-03-02T04:00:44;5.90;99.90
64869;DHT22;51349;52.424;10.840;2024-03-02T04:05:44;5.90;99.90
64869;DHT22;51349;52.424;10.840;2024-03-02T04:10:45;5.90;99.90
64869;DHT22;51349;52.424;10.840;2024-03-02T04:15:45;5.90;99.90
64869;DHT22;51349;52.424;10.840;2024-03-02T04:20:46;5.90;99.90
64869;DHT22;51349;52.424;10.840;2024-03-02T04:25:47;5.90;99.90
64869;DHT22;51349;52.424;10.840;2024-03-02T04:30:47;5.90;99.90
64869;DHT22;51349;52.424;10.840;2024-03-02T04:35:48;5.90;99.90
64869;DHT22;51349;52.424;10.840;2024-03-02T04:40:48;5.90;99.90
64869;DHT22;51349;52.424;10.840;2024-03-02T04:45:49;6.00;99.90
64869;DHT22;51349;52.424;10.840;2024-03-02T04:50:50;6.00;99.90
64869;DHT22;51349;52.424;10.840;2024-03-02T04:55:51;5.90;99.90
64869;DHT22;51349;52.424;10.840;2024-03-02T05:00:54;5.90;99.90
64869;DHT22;51349;52.424;10.840;2024-03-02T05:05:55;5.90;99.90
64869;DHT22;51349;52.424;10.840;2024-03-02T05:10:56;5.90;99.90
64869;DHT22;51349;52.424;10.840;2024-03-02T05:16:17;5.90;99.90
64869;DHT22;51349;52.424;10.840;2024-03-02T05:21:17;5.90;99.90
64869;DHT22;51349;52.424;10.840;2024-03-02T05:26:18;5.90;99.90
64869;DHT22;51349;52.424;10.840;2024-03-02T05:31:19;5.80;99.90
64869;DHT22;51349;52.424;10.840;2024-03-02T05:36:19;5.80;99.90
64869;DHT22;51349;52.424;10.840;2024-03-02T05:41:21;5.80;99.90
64869;DHT22;51349;52.424;10.840;2024-03-02T05:46:21;5.80;99.90
64869;DHT22;51349;52.424;10.840;2024-03-02T05:51:22;5.70;99.90
64869;DHT22;51349;52.424;10.840;2024-03-02T05:56:23;5.70;99.90
64869;DHT22;51349;52.424;10.840;2024-03-02T06:01:23;5.60;99.90
64869;DHT22;51349;52.424;10.840;2024-03-02T06:06:29;5.60;99.90
64869;DHT22;51349;52.424;10.840;2024-03-02T06:11:30;5.60;99.90
64869;DHT22;51349;52.424;10.840;2024-03-02T06:16:31;5.50;99.90
64869;DHT22;51349;52.424;10.840;2024-03-02T06:21:32;5.60;99.90
64869;DHT22;51349;52.424;10.840;2024-03-02T06:26:33;5.80;99.90
64869;DHT22;51349;52.424;10.840;2024-03-02T06:31:34;5.90;99.90
64869;DHT22;51349;52.424;10.840;2024-03-02T06:36:34;6.00;99.90
64869;DHT22;51349;52.424;10.840;2024-03-02T06:41:35;6.10;99.90
64869;DHT22;51349;52.424;10.840;2024-03-02T06:46:35;6.20;99.90
64869;DHT22;51349;52.424;10.840;2024-03-02T06:51:36;6.40;99.90
64869;DHT22;51349;52.424;10.840;2024-03-02T06:56:37;6.50;99.90
64869;DHT22;51349;52.424;10.840;2024-03-02T07:01:43;6.60;99.90
64869;DHT22;51349;52.424;10.840;2024-03-02T07:06:44;6.60;99.90
64869;DHT22;51349;52.424;10.840;2024-03-02T07:11:45;6.60;99.90
64869;DHT22;51349;52.424;10.840;2024-03-02T07:16:45;6.50;99.90
64869;DHT22;51349;52.424;10.840;2024-03-02T07:21:46;6.60;99.90
64869;DHT22;51349;52.424;10.840;2024-03-02T07:26:47;6.60;99.90
64869;DHT22;51349;52.424;10.840;2024-03-02T07:31:47;6.60;99.90
64869;DHT22;51349;52.424;10.840;2024-03-02T07:36:48;6.70;99.90
64869;DHT22;51349;52.424;10.840;2024-03-02T07:41:49;7.00;99.90
64869;DHT22;51349;52.424;10.840;2024-03-02T07:46:50;7.10;99.90
64869;DHT22;51349;52.424;10.840;2024-03-02T07:51:50;7.20;99.90
64869;DHT22;51349;52.424;10.840;2024-03-02T07:56:52;7.30;99.90
64869;DHT22;51349;52.424;10.840;2024-03-02T08:01:52;7.40;99.90
64869;DHT22;51349;52.424;10.840;2024-03-02T08:06:55;7.60;99.90
64869;DHT22;51349;52.424;10.840;2024-03-02T08:11:56;7.80;99.90
64869;DHT22;51349;52.424;10.840;2024-03-02T08:16:58;7.90;99.90
64869;DHT22;51349;52.424;10.840;2024-03-02T08:21:59;8.20;99.90
64869;DHT22;51349;52.424;10.840;2024-03-02T08:27:00;8.30;99.90
64869;DHT22;51349;52.424;10.840;2024-03-02T08:32:01;8.60;99.90
64869;DHT22;51349;52.424;10.840;2024-03-02T08:37:02;8.90;99.90
64869;DHT22;51349;52.424;10.840;2024-03-02T08:42:03;9.30;99.90
64869;DHT22;51349;52.424;10.840;2024-03-02T08:47:05;9.50;99.90
64869;DHT22;51349;52.424;10.840;2024-03-02T08:52:06;10.00;99.90
64869;DHT22;51349;52.424;10.840;2024-03-02T08:57:10;10.80;99.90
64869;DHT22;51349;52.424;10.840;2024-03-02T09:02:11;11.70;99.90
64869;DHT22;51349;52.424;10.840;2024-03-02T09:07:12;10.60;99.90
64869;DHT22;51349;52.424;10.840;2024-03-02T09:12:14;11.60;99.90
64869;DHT22;51349;52.424;10.840;2024-03-02T09:17:15;12.20;99.90
64869;DHT22;51349;52.424;10.840;2024-03-02T09:22:15;12.90;99.90
64869;DHT22;51349;52.424;10.840;2024-03-02T09:27:16;13.00;99.90
64869;DHT22;51349;52.424;10.840;2024-03-02T09:32:17;13.60;99.90
64869;DHT22;51349;52.424;10.840;2024-03-02T09:37:18;14.90;99.90
64869;DHT22;51349;52.424;10.840;2024-03-02T09:42:19;13.10;99.90
64869;DHT22;51349;52.424;10.840;2024-03-02T09:47:20;13.10;99.90
64869;DHT22;51349;52.424;10.840;2024-03-02T09:52:22;14.00;99.90
64869;DHT22;51349;52.424;10.840;2024-03-02T09:57:23;13.50;99.90
64869;DHT22;51349;52.424;10.840;2024-03-02T10:02:24;13.20;99.90
64869;DHT22;51349;52.424;10.840;2024-03-02T10:07:25;13.40;99.90
64869;DHT22;51349;52.424;10.840;2024-03-02T10:12:26;13.70;99.90
64869;DHT22;51349;52.424;10.840;2024-03-02T10:17:31;15.20;99.90
64869;DHT22;51349;52.424;10.840;2024-03-02T10:22:32;14.20;99.90
64869;DHT22;51349;52.424;10.840;2024-03-02T10:27:34;15.30;99.90
64869;DHT22;51349;52.424;10.840;2024-03-02T10:32:35;14.60;99.90
64869;DHT22;51349;52.424;10.840;2024-03-02T10:37:35;14.50;99.90
64869;DHT22;51349;52.424;10.840;2024-03-02T10:42:38;14.00;99.90
64869;DHT22;51349;52.424;10.840;2024-03-02T10:47:39;14.30;99.90
64869;DHT22;51349;52.424;10.840;2024-03-02T10:52:41;14.60;99.90
64869;DHT22;51349;52.424;10.840;2024-03-02T10:57:51;13.70;99.90
64869;DHT22;51349;52.424;10.840;2024-03-02T11:03:02;13.80;99.90
64869;DHT22;51349;52.424;10.840;2024-03-02T11:08:08;14.00;99.90
64869;DHT22;51349;52.424;10.840;2024-03-02T11:13:12;13.20;99.90
64869;DHT22;51349;52.424;10.840;2024-03-02T11:18:14;13.70;99.90
64869;DHT22;51349;52.424;10.840;2024-03-02T11:23:15;13.50;99.90
64869;DHT22;51349;52.424;10.840;2024-03-02T11:28:34;13.70;99.90
64869;DHT22;51349;52.424;10.840;2024-03-02T11:33:37;13.80;99.90
64869;DHT22;51349;52.424;10.840;2024-03-02T11:38:38;13.70;99.90
64869;DHT22;51349;52.424;10.840;2024-03-02T11:43:39;13.90;99.90
64869;DHT22;51349;52.424;10.840;2024-03-02T11:48:40;14.70;99.90
64869;DHT22;51349;52.424;10.840;2024-03-02T11:53:47;15.70;99.90
64869;DHT22;51349;52.424;10.840;2024-03-02T11:58:48;17.40;99.90
64869;DHT22;51349;52.424;10.840;2024-03-02T12:03:51;16.00;99.90
64869;DHT22;51349;52.424;10.840;2024-03-02T12:08:56;15.70;99.90
64869;DHT22;51349;52.424;10.840;2024-03-02T12:13:56;15.50;99.90
64869;DHT22;51349;52.424;10.840;2024-03-02T12:18:59;17.90;99.90
64869;DHT22;51349;52.424;10.840;2024-03-02T12:24:01;16.30;99.90
64869;DHT22;51349;52.424;10.840;2024-03-02T12:29:01;16.00;99.90
64869;DHT22;51349;52.424;10.840;2024-03-02T12:34:03;15.90;99.90
64869;DHT22;51349;52.424;10.840;2024-03-02T12:39:05;15.60;99.90
64869;DHT22;51349;52.424;10.840;2024-03-02T12:44:06;16.00;99.90
64869;DHT22;51349;52.424;10.840;2024-03-02T12:49:14;15.90;99.90
64869;DHT22;51349;52.424;10.840;2024-03-02T12:54:16;15.30;99.90
64869;DHT22;51349;52.424;10.840;2024-03-02T12:59:18;14.80;99.90
64869;DHT22;51349;52.424;10.840;2024-03-02T13:04:30;14.90;99.90
64869;DHT22;51349;52.424;10.840;2024-03-02T13:09:31;14.70;99.90
64869;DHT22;51349;52.424;10.840;2024-03-02T13:14:33;14.90;99.90
64869;DHT22;51349;52.424;10.840;2024-03-02T13:19:35;15.30;99.90
64869;DHT22;51349;52.424;10.840;2024-03-02T13:24:36;15.00;99.90
64869;DHT22;51349;52.424;10.840;2024-03-02T13:29:40;14.90;99.90
64869;DHT22;51349;52.424;10.840;2024-03-02T13:34:41;15.10;99.90
64869;DHT22;51349;52.424;10.840;2024-03-02T13:39:45;14.90;99.90
64869;DHT22;51349;52.424;10.840;2024-03-02T13:44:46;15.40;99.90
64869;DHT22;51349;52.424;10.840;2024-03-02T13:49:48;15.20;99.90
64869;DHT22;51349;52.424;10.840;2024-03-02T13:54:49;15.10;99.90
64869;DHT22;51349;52.424;10.840;2024-03-02T13:59:51;14.90;99.90
64869;DHT22;51349;52.424;10.840;2024-03-02T14:04:53;15.10;99.90
64869;DHT22;51349;52.424;10.840;2024-03-02T14:09:53;15.20;99.90
64869;DHT22;51349;52.424;10.840;2024-03-02T14:14:54;14.80;99.90
64869;DHT22;51349;52.424;10.840;2024-03-02T14:19:59;15.10;99.90
64869;DHT22;51349;52.424;10.840;2024-03-02T14:25:00;14.80;99.90
64869;DHT22;51349;52.424;10.840;2024-03-02T14:30:02;14.40;99.90
64869;DHT22;51349;52.424;10.840;2024-03-02T14:35:03;14.50;99.90
64869;DHT22;51349;52.424;10.840;2024-03-02T14:40:04;14.60;99.90
64869;DHT22;51349;52.424;10.840;2024-03-02T14:45:06;15.00;99.90
64869;DHT22;51349;52.424;10.840;2024-03-02T14:50:07;15.10;99.90
64869;DHT22;51349;52.424;10.840;2024-03-02T14:55:11;15.00;99.90
64869;DHT22;51349;52.424;10.840;2024-03-02T15:00:12;14.70;99.90
64869;DHT22;51349;52.424;10.840;2024-03-02T15:05:22;15.40;99.90
64869;DHT22;51349;52.424;10.840;2024-03-02T15:10:23;15.60;99.90
64869;DHT22;51349;52.424;10.840;2024-03-02T15:15:25;15.80;99.90
64869;DHT22;51349;52.424;10.840;2024-03-02T15:20:29;16.10;99.90
64869;DHT22;51349;52.424;10.840;2024-03-02T15:25:30;16.20;99.90
64869;DHT22;51349;52.424;10.840;2024-03-02T15:30:30;16.00;99.90
64869;DHT22;51349;52.424;10.840;2024-03-02T15:35:31;15.40;99.90
64869;DHT22;51349;52.424;10.840;2024-03-02T15:40:32;14.70;99.90
64869;DHT22;51349;52.424;10.840;2024-03-02T15:45:32;14.50;99.90
64869;DHT22;51349;52.424;10.840;2024-03-02T15:50:34;14.30;99.90
64869;DHT22;51349;52.424;10.840;2024-03-02T15:55:37;14.20;99.90
64869;DHT22;51349;52.424;10.840;2024-03-02T16:00:37;13.90;99.90
64869;DHT22;51349;52.424;10.840;2024-03-02T16:05:38;13.70;99.90
64869;DHT22;51349;52.424;10.840;2024-03-02T16:10:39;13.50;99.90
64869;DHT22;51349;52.424;10.840;2024-03-02T16:15:40;13.30;99.90
64869;DHT22;51349;52.424;10.840;2024-03-02T16:20:40;13.10;99.90
64869;DHT22;51349;52.424;10.840;2024-03-02T16:25:41;13.00;99.90
64869;DHT22;51349;52.424;10.840;2024-03-02T16:30:42;12.90;99.90
64869;DHT22;51349;52.424;10.840;2024-03-02T16:35:43;12.60;99.90
64869;DHT22;51349;52.424;10.840;2024-03-02T16:40:45;12.50;99.90
64869;DHT22;51349;52.424;10.840;2024-03-02T16:45:48;12.20;99.90
64869;DHT22;51349;52.424;10.840;2024-03-02T16:50:49;12.00;99.90
64869;DHT22;51349;52.424;10.840;2024-03-02T16:55:49;12.00;99.90
64869;DHT22;51349;52.424;10.840;2024-03-02T17:00:50;11.70;99.90
64869;DHT22;51349;52.424;10.840;2024-03-02T17:05:52;11.60;99.90
64869;DHT22;51349;52.424;10.840;2024-03-02T17:10:53;11.40;99.90
64869;DHT22;51349;52.424;10.840;2024-03-02T17:15:54;11.20;99.90
64869;DHT22;51349;52.424;10.840;2024-03-02T17:20:54;11.10;99.90
64869;DHT22;51349;52.424;10.840;2024-03-02T17:25:56;11.00;99.90
64869;DHT22;51349;52.424;10.840;2024-03-02T17:30:57;10.80;99.90
64869;DHT22;51349;52.424;10.840;2024-03-02T17:35:59;10.70;99.90
64869;DHT22;51349;52.424;10.840;2024-03-02T17:40:59;10.60;99.90
64869;DHT22;51349;52.424;10.840;2024-03-02T17:46:01;10.40;99.90
64869;DHT22;51349;52.424;10.840;2024-03-02T17:51:01;10.20;99.90
64869;DHT22;51349;52.424;10.840;2024-03-02T17:56:09;10.10;99.90
64869;DHT22;51349;52.424;10.840;2024-03-02T18:01:14;9.60;99.90
64869;DHT22;51349;52.424;10.840;2024-03-02T18:06:17;9.50;99.90
64869;DHT22;51349;52.424;10.840;2024-03-02T18:11:18;9.20;99.90
64869;DHT22;51349;52.424;10.840;2024-03-02T18:16:19;9.10;99.90
64869;DHT22;51349;52.424;10.840;2024-03-02T18:21:19;9.00;99.90
64869;DHT22;51349;52.424;10.840;2024-03-02T18:26:20;8.70;99.90
64869;DHT22;51349;52.424;10.840;2024-03-02T18:31:21;8.80;99.90
64869;DHT22;51349;52.424;10.840;2024-03-02T18:36:22;8.70;99.90
64869;DHT22;51349;52.424;10.840;2024-03-02T18:41:23;8.60;99.90
64869;DHT22;51349;52.424;10.840;2024-03-02T18:46:24;8.60;99.90
64869;DHT22;51349;52.424;10.840;2024-03-02T18:51:24;8.50;99.90
64869;DHT22;51349;52.424;10.840;2024-03-02T18:56:25;8.60;99.90
64869;DHT22;51349;52.424;10.840;2024-03-02T19:01:26;8.60;99.90
64869;DHT22;51349;52.424;10.840;2024-03-02T19:06:27;8.50;99.90
64869;DHT22;51349;52.424;10.840;2024-03-02T19:11:27;8.70;99.90
64869;DHT22;51349;52.424;10.840;2024-03-02T19:16:28;8.70;99.90
64869;DHT22;51349;52.424;10.840;2024-03-02T19:21:29;8.70;99.90
64869;DHT22;51349;52.424;10.840;2024-03-02T19:26:30;8.60;99.90
64869;DHT22;51349;52.424;10.840;2024-03-02T19:31:30;8.50;99.90
64869;DHT22;51349;52.424;10.840;2024-03-02T19:36:31;8.40;99.90
64869;DHT22;51349;52.424;10.840;2024-03-02T19:41:31;8.40;99.90
64869;DHT22;51349;52.424;10.840;2024-03-02T19:46:32;8.30;99.90
64869;DHT22;51349;52.424;10.840;2024-03-02T19:51:33;8.40;99.90
64869;DHT22;51349;52.424;10.840;2024-03-02T19:56:34;8.30;99.90
64869;DHT22;51349;52.424;10.840;2024-03-02T20:01:35;8.20;99.90
64869;DHT22;51349;52.424;10.840;2024-03-02T20:06:36;8.00;99.90
64869;DHT22;51349;52.424;10.840;2024-03-02T20:11:36;7.90;99.90
64869;DHT22;51349;52.424;10.840;2024-03-02T20:16:37;7.70;99.90
64869;DHT22;51349;52.424;10.840;2024-03-02T20:21:42;7.60;99.90
64869;DHT22;51349;52.424;10.840;2024-03-02T20:26:43;7.50;99.90
64869;DHT22;51349;52.424;10.840;2024-03-02T20:31:44;7.30;99.90
64869;DHT22;51349;52.424;10.840;2024-03-02T20:36:45;7.20;99.90
64869;DHT22;51349;52.424;10.840;2024-03-02T20:41:46;7.20;99.90
64869;DHT22;51349;52.424;10.840;2024-03-02T20:46:47;7.30;99.90
64869;DHT22;51349;52.424;10.840;2024-03-02T20:51:48;7.40;99.90
64869;DHT22;51349;52.424;10.840;2024-03-02T20:56:48;7.50;99.90
64869;DHT22;51349;52.424;10.840;2024-03-02T21:01:50;7.40;99.90
64869;DHT22;51349;52.424;10.840;2024-03-02T21:06:51;7.40;99.90
64869;DHT22;51349;52.424;10.840;2024-03-02T21:11:52;7.10;99.90
64869;DHT22;51349;52.424;10.840;2024-03-02T21:16:52;6.90;99.90
64869;DHT22;51349;52.424;10.840;2024-03-02T21:21:53;6.80;99.90
64869;DHT22;51349;52.424;10.840;2024-03-02T21:26:55;7.00;99.90
64869;DHT22;51349;52.424;10.840;2024-03-02T21:31:56;7.10;99.90
64869;DHT22;51349;52.424;10.840;2024-03-02T21:36:57;7.20;99.90
64869;DHT22;51349;52.424;10.840;2024-03-02T21:42:00;7.20;99.90
64869;DHT22;51349;52.424;10.840;2024-03-02T21:47:01;7.20;99.90
64869;DHT22;51349;52.424;10.840;2024-03-02T21:52:02;7.20;99.90
64869;DHT22;51349;52.424;10.840;2024-03-02T21:57:02;7.10;99.90
64869;DHT22;51349;52.424;10.840;2024-03-02T22:02:06;7.20;99.90
64869;DHT22;51349;52.424;10.840;2024-03-02T22:07:07;7.20;99.90
64869;DHT22;51349;52.424;10.840;2024-03-02T22:12:07;7.20;99.90
64869;DHT22;51349;52.424;10.840;2024-03-02T22:17:08;7.10;99.90
64869;DHT22;51349;52.424;10.840;2024-03-02T22:22:09;6.90;99.90
64869;DHT22;51349;52.424;10.840;2024-03-02T22:27:09;6.70;99.90
64869;DHT22;51349;52.424;10.840;2024-03-02T22:32:10;6.60;99.90
64869;DHT22;51349;52.424;10.840;2024-03-02T22:37:11;6.30;99.90
64869;DHT22;51349;52.424;10.840;2024-03-02T22:42:11;6.20;99.90
64869;DHT22;51349;52.424;10.840;2024-03-02T22:47:12;5.90;99.90
64869;DHT22;51349;52.424;10.840;2024-03-02T22:52:13;5.80;99.90
64869;DHT22;51349;52.424;10.840;2024-03-02T22:57:13;5.70;99.90
64869;DHT22;51349;52.424;10.840;2024-03-02T23:02:17;5.70;99.90
64869;DHT22;51349;52.424;10.840;2024-03-02T23:07:18;5.60;99.90
64869;DHT22;51349;52.424;10.840;2024-03-02T23:12:19;5.40;99.90
64869;DHT22;51349;52.424;10.840;2024-03-02T23:17:20;5.40;99.90
64869;DHT22;51349;52.424;10.840;2024-03-02T23:22:21;5.20;99.90
64869;DHT22;51349;52.424;10.840;2024-03-02T23:27:23;5.20;99.90
64869;DHT22;51349;52.424;10.840;2024-03-02T23:32:23;5.30;99.90
64869;DHT22;51349;52.424;10.840;2024-03-02T23:37:24;5.40;99.90
64869;DHT22;51349;52.424;10.840;2024-03-02T23:42:25;5.40;99.90
64869;DHT22;51349;52.424;10.840;2024-03-02T23:47:26;5.20;99.90
64869;DHT22;51349;52.424;10.840;2024-03-02T23:52:29;5.00;99.90
64869;DHT22;51349;52.424;10.840;2024-03-02T23:57:30;4.90;99.90
